Time;durP1;ratioP1;P1;durP2;ratioP2;P2;SDS_P1;SDS_P2;PMS_P1;PMS_P2;Temp;Humidity;BMP_temperature;BMP_pressure;BME280_temperature;BME280_humidity;BME280_pressure;Samples;Min_cycle;Max_cycle;Signal;HPM_P1;HPM_P2
2020/12/21 00:00:26;;;;;;;33.32;16.58;;;;;;;4.27;69.82;100975.16;330825;122;1965066;-74
2020/12/21 00:01:31;;;;;;;36.28;18.62;;;;;;;4.27;70.14;100970.66;331537;122;1963706;-74
2020/12/21 00:02:36;;;;;;;38.78;18.30;;;;;;;4.30;70.09;100972.22;330986;120;1961961;-75
2020/12/21 00:03:45;;;;;;;34.50;16.33;;;;;;;4.32;70.23;100980.97;330503;122;1961992;-75
2020/12/21 00:04:50;;;;;;;34.43;17.39;;;;;;;4.32;70.24;100979.13;331165;120;1962949;-75
2020/12/21 00:05:55;;;;;;;36.58;17.21;;;;;;;4.32;70.03;100979.13;331189;120;1961968;-74
2020/12/21 00:07:01;;;;;;;33.53;17.03;;;;;;;4.31;69.93;100973.91;330490;120;1963973;-74
2020/12/21 00:08:07;;;;;;;38.28;18.71;;;;;;;4.30;70.01;100975.73;330771;122;1962039;-74
2020/12/21 00:09:13;;;;;;;41.13;19.02;;;;;;;4.29;70.03;100973.21;288960;122;2795029;-73
2020/12/21 00:10:20;;;;;;;37.62;16.88;;;;;;;4.28;70.09;100974.17;331980;121;1961706;-74
2020/12/21 00:11:35;;;;;;;36.92;17.44;;;;;;;4.24;70.14;100981.63;326811;122;1961997;-74
2020/12/21 00:12:44;;;;;;;36.88;18.89;;;;;;;4.21;70.21;100981.02;332119;120;1961961;-74
2020/12/21 00:13:49;;;;;;;36.49;17.46;;;;;;;4.22;70.43;100980.06;324388;122;1964025;-74
2020/12/21 00:14:54;;;;;;;32.43;16.70;;;;;;;4.27;70.34;100983.19;332730;120;1961908;-74
2020/12/21 00:15:59;;;;;;;35.56;17.90;;;;;;;4.29;70.31;100978.56;327609;121;1961971;-74
2020/12/21 00:17:15;;;;;;;37.92;18.61;;;;;;;4.33;70.22;100975.46;331540;120;1961898;-73
2020/12/21 00:18:20;;;;;;;36.64;17.75;;;;;;;4.37;70.04;100976.06;355154;111;1962982;-74
2020/12/21 00:19:25;;;;;;;39.61;19.11;;;;;;;4.39;69.89;100974.08;353599;112;1961991;-74
2020/12/21 00:20:31;;;;;;;41.71;20.03;;;;;;;4.40;69.79;100978.47;353901;113;1961951;-74
2020/12/21 00:21:38;;;;;;;38.02;20.37;;;;;;;4.40;69.79;100975.80;311892;113;2764982;-73
2020/12/21 00:22:43;;;;;;;41.13;19.70;;;;;;;4.40;69.70;100975.80;358226;111;1962019;-74
2020/12/21 00:23:48;;;;;;;40.07;18.93;;;;;;;4.36;69.67;100979.70;358372;111;1963991;-74
2020/12/21 00:24:54;;;;;;;44.54;20.31;;;;;;;4.26;69.88;100979.67;359280;113;1962000;-74
2020/12/21 00:25:59;;;;;;;47.00;23.09;;;;;;;4.15;70.14;100971.70;358404;111;1962042;-74
2020/12/21 00:27:05;;;;;;;48.94;20.45;;;;;;;4.05;70.34;100974.34;318050;111;2683968;-74
2020/12/21 00:28:11;;;;;;;54.46;19.66;;;;;;;3.94;70.44;100980.61;339831;111;1962072;-73
2020/12/21 00:29:18;;;;;;;41.65;18.28;;;;;;;3.86;70.74;100976.88;349574;111;1961941;-74
2020/12/21 00:30:25;;;;;;;42.32;18.09;;;;;;;3.82;70.90;100978.12;341728;111;2247901;-74
2020/12/21 00:31:33;;;;;;;37.59;18.52;;;;;;;3.82;71.07;100975.45;335611;111;1961865;-74
2020/12/21 00:32:39;;;;;;;36.82;18.19;;;;;;;3.86;70.98;100976.88;357948;111;1962009;-74
2020/12/21 00:33:45;;;;;;;38.16;18.92;;;;;;;3.87;71.02;100974.08;313613;113;2797979;-75
2020/12/21 00:34:50;;;;;;;41.94;18.46;;;;;;;3.90;71.15;100981.00;350507;113;1962893;-74
2020/12/21 00:35:55;;;;;;;45.94;18.76;;;;;;;3.92;71.12;100976.37;358047;111;1962070;-73
2020/12/21 00:37:01;;;;;;;39.42;18.38;;;;;;;3.93;71.09;100976.22;357938;111;1961943;-73
2020/12/21 00:38:06;;;;;;;40.06;18.94;;;;;;;3.94;71.10;100979.73;359081;111;1963872;-73
2020/12/21 00:39:12;;;;;;;38.24;19.12;;;;;;;4.00;71.29;100981.07;358476;111;1962022;-73
2020/12/21 00:40:18;;;;;;;45.58;20.24;;;;;;;4.02;71.30;100971.91;357737;111;1962008;-74
2020/12/21 00:41:25;;;;;;;35.41;17.22;;;;;;;4.06;70.96;100970.68;310456;111;2829915;-73
2020/12/21 00:42:33;;;;;;;40.31;19.08;;;;;;;4.11;71.07;100968.46;357602;113;1963981;-74
2020/12/21 00:43:39;;;;;;;39.20;18.38;;;;;;;4.15;71.05;100963.69;324232;111;2585964;-74
2020/12/21 00:44:44;;;;;;;44.83;20.84;;;;;;;4.21;70.85;100973.00;345242;111;1964998;-73
2020/12/21 00:45:50;;;;;;;50.39;19.92;;;;;;;4.24;70.72;100975.44;357033;111;1962054;-73
2020/12/21 00:46:55;;;;;;;46.88;19.39;;;;;;;4.22;70.35;100972.87;357050;111;1962064;-74
2020/12/21 00:48:00;;;;;;;38.40;18.96;;;;;;;4.22;70.75;100972.87;357360;111;1961955;-74
2020/12/21 00:49:08;;;;;;;42.37;20.01;;;;;;;4.23;70.71;100971.05;356457;111;1964216;-74
2020/12/21 00:50:27;;;;;;;44.39;21.29;;;;;;;4.23;70.73;100968.38;328234;113;1964897;-73
2020/12/21 00:51:33;;;;;;;43.69;19.04;;;;;;;4.25;70.86;100967.26;343783;115;1962008;-74
2020/12/21 00:52:39;;;;;;;51.39;19.40;;;;;;;4.26;70.58;100973.45;356826;109;1962932;-73
2020/12/21 00:53:45;;;;;;;54.51;19.33;;;;;;;4.26;70.22;100971.65;359672;109;1964951;-73
2020/12/21 00:54:50;;;;;;;42.39;18.39;;;;;;;4.24;69.99;100975.44;353946;111;1961982;-74
2020/12/21 00:56:01;;;;;;;49.27;20.02;;;;;;;4.27;70.81;100967.14;353786;111;1961940;-73
2020/12/21 00:57:06;;;;;;;44.73;19.35;;;;;;;4.30;70.76;100958.84;353710;111;1962034;-73
2020/12/21 00:58:12;;;;;;;56.12;20.50;;;;;;;4.32;70.55;100965.75;324906;111;2480038;-74
2020/12/21 00:59:18;;;;;;;54.04;20.79;;;;;;;4.29;70.28;100968.70;332654;113;1964988;-73
2020/12/21 01:00:24;;;;;;;47.48;20.33;;;;;;;4.26;70.25;100965.42;349837;112;1962970;-74
2020/12/21 01:01:30;;;;;;;42.30;19.02;;;;;;;4.29;70.49;100962.52;348520;112;1961960;-73
2020/12/21 01:02:39;;;;;;;41.60;18.54;;;;;;;4.28;70.40;100969.66;326892;115;2340012;-74
2020/12/21 01:03:44;;;;;;;40.98;18.30;;;;;;;4.29;70.47;100970.53;354837;111;1961989;-74
2020/12/21 01:04:49;;;;;;;47.80;20.25;;;;;;;4.32;70.56;100967.59;353766;111;1961974;-74
2020/12/21 01:05:54;;;;;;;44.43;19.57;;;;;;;4.34;70.47;100969.16;353799;111;1961960;-73
2020/12/21 01:07:00;;;;;;;40.62;19.91;;;;;;;4.35;70.22;100969.99;349473;112;1961981;-75
2020/12/21 01:08:07;;;;;;;41.60;18.57;;;;;;;4.35;70.33;100960.13;330372;112;2294932;-74
2020/12/21 01:09:12;;;;;;;42.43;19.25;;;;;;;4.38;70.24;100959.86;328273;111;1962038;-73
2020/12/21 01:10:19;;;;;;;41.39;18.90;;;;;;;4.40;70.11;100959.73;353781;111;1961975;-75
2020/12/21 01:11:30;;;;;;;42.31;18.52;;;;;;;4.40;70.09;100954.39;353391;111;1962107;-74
2020/12/21 01:12:35;;;;;;;45.67;19.36;;;;;;;4.43;70.17;100956.80;354535;111;1960898;-73
2020/12/21 01:13:42;;;;;;;42.63;18.28;;;;;;;4.45;70.09;100957.51;313310;111;2675947;-74
2020/12/21 01:14:48;;;;;;;45.74;19.30;;;;;;;4.47;69.98;100958.20;355207;111;1961963;-74
2020/12/21 01:15:53;;;;;;;47.39;20.44;;;;;;;4.47;69.73;100955.52;353009;111;1962017;-75
2020/12/21 01:16:59;;;;;;;45.86;19.91;;;;;;;4.47;69.63;100957.36;353639;111;1964956;-73
2020/12/21 01:18:05;;;;;;;43.55;20.81;;;;;;;4.44;69.78;100961.14;315809;113;2704069;-74
2020/12/21 01:19:10;;;;;;;57.43;19.83;;;;;;;4.39;69.82;100953.55;335696;111;1961990;-73
2020/12/21 01:20:19;;;;;;;55.62;21.32;;;;;;;4.32;69.89;100959.56;354513;111;1962023;-74
2020/12/21 01:21:27;;;;;;;56.23;21.70;;;;;;;4.21;70.05;100956.95;330287;111;2417016;-73
2020/12/21 01:22:33;;;;;;;46.42;20.47;;;;;;;4.12;70.58;100956.77;354868;111;1962054;-74
2020/12/21 01:23:39;;;;;;;39.15;20.06;;;;;;;4.02;70.70;100955.02;329185;111;2432019;-74
2020/12/21 01:24:45;;;;;;;37.89;18.88;;;;;;;3.94;71.00;100948.53;343744;111;1961903;-74
2020/12/21 01:25:51;;;;;;;39.69;18.13;;;;;;;3.94;70.89;100963.70;353866;113;1964947;-74
2020/12/21 01:26:56;;;;;;;47.37;19.18;;;;;;;3.94;70.91;100953.01;353791;111;1961922;-73
2020/12/21 01:28:03;;;;;;;47.70;19.13;;;;;;;3.94;71.01;100955.68;355570;114;1961911;-73
2020/12/21 01:29:09;;;;;;;44.24;19.39;;;;;;;3.37;70.89;100852.81;348554;111;1961982;-74
2020/12/21 01:30:15;;;;;;;45.90;20.45;;;;;;;3.98;71.01;100949.11;348837;112;1962020;-73
2020/12/21 01:31:21;;;;;;;43.97;19.65;;;;;;;4.01;71.05;100953.34;354393;111;1962051;-74
2020/12/21 01:32:26;;;;;;;45.87;19.35;;;;;;;4.03;71.06;100944.21;353769;111;1961961;-73
2020/12/21 01:33:32;;;;;;;46.02;20.71;;;;;;;4.05;71.11;100952.08;352779;114;1961939;-74
2020/12/21 01:34:38;;;;;;;41.88;18.79;;;;;;;4.06;71.11;100956.47;312762;111;2724960;-73
2020/12/21 01:35:43;;;;;;;44.27;18.81;;;;;;;4.06;71.17;100949.29;345146;111;1962027;-74
2020/12/21 01:36:50;;;;;;;42.36;18.23;;;;;;;4.10;71.34;100947.19;354495;111;1962039;-73
2020/12/21 01:37:55;;;;;;;37.99;18.02;;;;;;;4.11;71.21;100951.58;354488;111;1964096;-73
2020/12/21 01:39:01;;;;;;;44.01;20.51;;;;;;;4.15;71.22;100953.86;354568;111;1962013;-74
2020/12/21 01:40:07;;;;;;;40.59;19.83;;;;;;;4.18;71.01;100945.56;333577;111;2326961;-74
2020/12/21 01:41:13;;;;;;;45.41;20.62;;;;;;;4.24;70.99;100956.71;335975;111;1961014;-73
2020/12/21 01:42:20;;;;;;;39.40;18.81;;;;;;;4.26;70.83;100950.25;355091;111;1961982;-74
2020/12/21 01:43:26;;;;;;;43.18;19.42;;;;;;;4.27;70.81;100945.74;353818;111;1962949;-74
2020/12/21 01:44:32;;;;;;;40.83;19.14;;;;;;;4.27;70.84;100951.94;333898;111;1961926;-72
2020/12/21 01:45:38;;;;;;;42.12;18.88;;;;;;;4.28;70.82;100950.94;349268;111;1961989;-73
2020/12/21 01:46:44;;;;;;;45.33;21.67;;;;;;;4.31;70.83;100956.05;350475;115;1961932;-74
2020/12/21 01:47:49;;;;;;;45.39;21.48;;;;;;;4.33;70.75;100958.57;349347;112;1961938;-73
2020/12/21 01:48:56;;;;;;;44.95;19.39;;;;;;;4.35;70.69;100957.45;354248;111;1961982;-73
2020/12/21 01:50:04;;;;;;;43.96;20.51;;;;;;;4.37;70.47;100954.66;319605;111;2572998;-73
2020/12/21 01:51:22;;;;;;;40.71;19.44;;;;;;;4.36;70.58;100956.47;352773;113;1962030;-73
2020/12/21 01:52:27;;;;;;;41.59;18.91;;;;;;;4.39;70.69;100955.34;350333;112;1962031;-73
2020/12/21 01:53:36;;;;;;;42.18;19.65;;;;;;;4.42;70.45;100955.11;351588;112;1962012;-73
2020/12/21 01:54:44;;;;;;;42.52;20.29;;;;;;;4.45;70.38;100948.64;351330;114;1962945;-73
2020/12/21 01:55:54;;;;;;;41.06;18.80;;;;;;;4.46;70.29;100950.33;350312;112;1962027;-72
2020/12/21 01:57:00;;;;;;;39.73;19.03;;;;;;;4.47;70.35;100960.03;351764;112;1962030;-74
2020/12/21 01:58:07;;;;;;;45.71;20.61;;;;;;;4.48;70.30;100951.89;336793;112;1961886;-74
2020/12/21 01:59:12;;;;;;;43.67;19.86;;;;;;;4.51;70.18;100953.45;351208;112;1962064;-73
2020/12/21 02:00:18;;;;;;;42.51;18.69;;;;;;;4.52;70.09;100949.77;351070;112;1963915;-74
2020/12/21 02:01:26;;;;;;;41.21;19.66;;;;;;;4.52;70.12;100953.30;353120;112;1961882;-74
2020/12/21 02:02:33;;;;;;;48.46;20.19;;;;;;;4.53;70.08;100949.66;349434;112;1961951;-73
2020/12/21 02:03:39;;;;;;;42.22;19.56;;;;;;;4.53;69.91;100955.01;351953;112;1965004;-73
2020/12/21 02:04:45;;;;;;;44.64;21.78;;;;;;;4.52;70.00;100953.30;310761;114;2896027;-74
2020/12/21 02:05:51;;;;;;;41.00;19.65;;;;;;;4.53;69.91;100955.01;340580;114;1963023;-74
2020/12/21 02:07:00;;;;;;;46.61;21.08;;;;;;;4.50;69.84;100947.25;350656;112;1962008;-73
2020/12/21 02:08:06;;;;;;;43.13;20.96;;;;;;;4.45;69.96;100952.16;317378;112;1960648;-74
2020/12/21 02:09:12;;;;;;;53.97;22.51;;;;;;;4.41;70.04;100951.56;351839;112;1962000;-74
2020/12/21 02:10:21;;;;;;;49.70;22.62;;;;;;;4.34;70.18;100960.25;328228;112;2363023;-73
2020/12/21 02:11:26;;;;;;;49.23;21.91;;;;;;;4.24;70.16;100954.04;351676;112;1962050;-73
2020/12/21 02:12:33;;;;;;;41.91;20.51;;;;;;;4.14;70.59;100951.30;350974;112;1962043;-74
2020/12/21 02:13:39;;;;;;;44.81;22.28;;;;;;;4.11;70.79;100955.09;305682;114;2825964;-73
2020/12/21 02:14:45;;;;;;;43.17;19.45;;;;;;;4.13;70.83;100958.48;345901;114;1965077;-73
2020/12/21 02:15:50;;;;;;;45.27;22.82;;;;;;;4.16;70.86;100954.70;347023;112;1963030;-74
2020/12/21 02:16:56;;;;;;;44.32;22.19;;;;;;;4.18;70.86;100956.27;350982;112;1960723;-74
2020/12/21 02:18:01;;;;;;;45.51;21.47;;;;;;;4.22;70.86;100954.16;350823;112;1963967;-74
2020/12/21 02:19:07;;;;;;;45.39;21.93;;;;;;;4.23;70.82;100955.84;350759;112;1962927;-73
2020/12/21 02:20:14;;;;;;;43.89;20.70;;;;;;;4.24;70.78;100949.53;351378;112;1962934;-73
2020/12/21 02:21:20;;;;;;;47.37;21.98;;;;;;;4.26;70.84;100949.37;350762;114;1963944;-73
2020/12/21 02:22:25;;;;;;;45.37;21.77;;;;;;;4.27;70.85;100946.59;350473;112;1962015;-74
2020/12/21 02:23:30;;;;;;;41.93;19.39;;;;;;;4.29;70.86;100944.63;350216;112;1962006;-72
2020/12/21 02:24:35;;;;;;;42.99;19.63;;;;;;;4.31;70.80;100950.70;350304;114;1963043;-73
2020/12/21 02:25:42;;;;;;;44.76;20.86;;;;;;;4.34;70.80;100946.88;350228;112;1961958;-74
2020/12/21 02:26:48;;;;;;;44.31;22.32;;;;;;;4.36;70.69;100939.58;321429;114;1962013;-72
2020/12/21 02:27:53;;;;;;;42.86;21.72;;;;;;;4.38;70.68;100940.30;335799;112;1961935;-73
2020/12/21 02:28:59;;;;;;;46.00;21.72;;;;;;;4.41;70.61;100942.70;351219;112;1961021;-73
2020/12/21 02:30:05;;;;;;;45.39;20.38;;;;;;;4.45;70.52;100948.64;351095;114;1962038;-73
2020/12/21 02:31:10;;;;;;;40.91;19.86;;;;;;;4.45;70.35;100938.78;350375;114;1961921;-73
2020/12/21 02:32:16;;;;;;;43.74;19.94;;;;;;;4.47;70.34;100943.98;350882;114;1962036;-73
2020/12/21 02:33:23;;;;;;;42.96;20.17;;;;;;;4.47;70.22;100944.81;350214;114;1961979;-74
2020/12/21 02:34:29;;;;;;;44.79;21.57;;;;;;;4.48;69.94;100941.19;350785;112;1961938;-73
2020/12/21 02:35:35;;;;;;;53.59;24.07;;;;;;;4.45;69.90;100941.45;349661;112;1964979;-74
2020/12/21 02:36:42;;;;;;;49.90;23.18;;;;;;;4.42;69.78;100947.08;319275;114;1961998;-74
2020/12/21 02:37:47;;;;;;;49.24;22.20;;;;;;;4.38;70.15;100949.16;346035;112;1961924;-73
2020/12/21 02:38:52;;;;;;;44.22;19.73;;;;;;;4.34;70.32;100952.23;351261;112;1961983;-73
2020/12/21 02:39:58;;;;;;;48.67;22.55;;;;;;;4.26;70.45;100950.25;350320;112;1961997;-73
2020/12/21 02:41:03;;;;;;;48.28;22.02;;;;;;;4.19;70.57;100947.25;351038;112;1961953;-73
2020/12/21 02:42:11;;;;;;;49.56;21.87;;;;;;;4.17;70.70;100949.20;350972;112;1961972;-73
2020/12/21 02:43:16;;;;;;;46.80;21.87;;;;;;;4.14;70.91;100952.14;329518;112;1962103;-74
2020/12/21 02:44:21;;;;;;;42.62;21.19;;;;;;;4.14;71.01;100954.82;345011;112;1963875;-73
2020/12/21 02:45:27;;;;;;;46.57;21.99;;;;;;;4.17;71.00;100956.38;351686;112;1964950;-74
2020/12/21 02:46:33;;;;;;;46.24;21.73;;;;;;;4.18;71.10;100958.06;351028;112;1961989;-74
2020/12/21 02:47:39;;;;;;;44.30;20.50;;;;;;;4.19;71.09;100959.78;352938;112;1962964;-74
2020/12/21 02:48:47;;;;;;;47.77;21.89;;;;;;;4.22;70.94;100959.50;304811;112;2832069;-73
2020/12/21 02:49:53;;;;;;;45.42;23.31;;;;;;;4.23;71.07;100955.84;351039;112;1962014;-73
2020/12/21 02:50:59;;;;;;;45.12;20.80;;;;;;;4.27;71.04;100959.95;350359;112;1961998;-73
2020/12/21 02:52:06;;;;;;;42.83;20.28;;;;;;;4.30;71.03;100958.84;351885;111;1962012;-74
2020/12/21 02:53:12;;;;;;;42.48;21.52;;;;;;;4.32;70.84;100960.41;353932;111;1963004;-74
2020/12/21 02:54:19;;;;;;;47.11;22.15;;;;;;;4.33;70.77;100956.73;355053;111;1965035;-73
2020/12/21 02:55:24;;;;;;;47.84;21.16;;;;;;;4.35;70.74;100952.11;329826;111;2374986;-74
2020/12/21 02:56:31;;;;;;;42.12;19.57;;;;;;;4.36;70.55;100952.95;355010;111;1960942;-73
2020/12/21 02:57:37;;;;;;;49.44;21.22;;;;;;;4.35;70.48;100957.45;354310;111;1961932;-73
2020/12/21 02:58:43;;;;;;;43.29;19.95;;;;;;;4.35;70.70;100961.97;354321;111;1961951;-73
2020/12/21 02:59:49;;;;;;;46.68;21.85;;;;;;;4.34;70.64;100961.12;306403;111;2852992;-75
2020/12/21 03:00:55;;;;;;;41.28;20.98;;;;;;;4.35;70.71;100961.97;353734;111;1962036;-74
2020/12/21 03:02:00;;;;;;;45.67;20.89;;;;;;;4.34;70.73;100961.12;354360;111;1965005;-73
2020/12/21 03:03:08;;;;;;;41.45;20.32;;;;;;;4.35;70.73;100956.62;354717;111;1961957;-73
2020/12/21 03:04:14;;;;;;;44.05;20.73;;;;;;;4.36;70.82;100963.65;319494;111;2592036;-73
2020/12/21 03:05:21;;;;;;;40.21;20.65;;;;;;;4.36;70.73;100964.48;351063;111;1961941;-74
2020/12/21 03:06:27;;;;;;;46.09;20.53;;;;;;;4.37;70.71;100962.69;354228;111;1960914;-73
2020/12/21 03:07:34;;;;;;;36.18;19.64;;;;;;;4.38;70.75;100967.05;307619;111;2828041;-73
2020/12/21 03:08:40;;;;;;;45.87;20.62;;;;;;;4.39;70.74;100961.58;355262;111;1962986;-74
2020/12/21 03:09:45;;;;;;;44.18;20.22;;;;;;;4.41;70.73;100964.94;354047;111;1961974;-73
2020/12/21 03:10:52;;;;;;;42.17;20.67;;;;;;;4.42;70.71;100963.13;354435;111;1962001;-74
2020/12/21 03:11:58;;;;;;;41.92;21.29;;;;;;;4.46;70.62;100956.52;321179;112;2547031;-74
2020/12/21 03:13:04;;;;;;;43.75;21.92;;;;;;;4.50;70.44;100973.14;330494;111;1961964;-73
2020/12/21 03:14:09;;;;;;;47.77;21.26;;;;;;;4.50;70.43;100970.46;349815;112;1962015;-73
2020/12/21 03:15:15;;;;;;;40.53;21.12;;;;;;;4.51;70.28;100973.02;353890;111;1961991;-72
2020/12/21 03:16:23;;;;;;;43.35;20.56;;;;;;;4.53;70.33;100972.89;354056;114;1962985;-74
2020/12/21 03:17:28;;;;;;;42.99;19.96;;;;;;;4.52;70.14;100972.02;329611;111;1961957;-74
2020/12/21 03:18:33;;;;;;;43.59;22.44;;;;;;;4.51;70.20;100970.34;350461;113;1961980;-73
2020/12/21 03:19:39;;;;;;;41.53;21.62;;;;;;;4.53;70.30;100965.71;349801;112;1964956;-73
2020/12/21 03:20:44;;;;;;;45.46;21.09;;;;;;;4.55;70.29;100966.42;350136;114;1962002;-72
2020/12/21 03:21:50;;;;;;;40.49;20.87;;;;;;;4.56;70.16;100969.94;353095;111;1961951;-73
2020/12/21 03:22:55;;;;;;;43.29;22.25;;;;;;;4.58;70.15;100966.16;353185;113;1962002;-73
2020/12/21 03:24:01;;;;;;;48.63;22.26;;;;;;;4.57;70.07;100961.77;355229;111;1961912;-73
2020/12/21 03:25:07;;;;;;;42.65;20.92;;;;;;;4.58;70.06;100963.48;308753;111;2061112;-74
2020/12/21 03:26:13;;;;;;;42.16;20.92;;;;;;;4.59;70.06;100965.16;346888;111;1962005;-74
2020/12/21 03:27:18;;;;;;;43.63;20.74;;;;;;;4.60;70.05;100958.84;347820;113;1961934;-73
2020/12/21 03:28:24;;;;;;;42.05;20.63;;;;;;;4.61;69.87;100955.17;349210;112;1963055;-73
2020/12/21 03:29:29;;;;;;;42.14;20.96;;;;;;;4.61;69.76;100951.66;349253;113;1964011;-75
2020/12/21 03:30:36;;;;;;;44.91;23.27;;;;;;;4.58;69.80;100950.09;319338;112;2567968;-73
2020/12/21 03:31:43;;;;;;;41.38;21.83;;;;;;;4.52;69.82;100953.30;349840;112;1961935;-74
2020/12/21 03:32:49;;;;;;;42.08;21.12;;;;;;;4.42;70.03;100955.11;355317;111;1961915;-74
2020/12/21 03:33:56;;;;;;;49.43;23.03;;;;;;;4.35;70.21;100954.78;303575;111;2099445;-73
2020/12/21 03:35:04;;;;;;;44.67;21.34;;;;;;;4.19;70.31;100943.73;334797;111;1962054;-74
2020/12/21 03:36:09;;;;;;;44.77;20.75;;;;;;;4.19;70.53;100957.95;350588;113;1962988;-75
2020/12/21 03:37:15;;;;;;;42.22;21.54;;;;;;;4.14;70.76;100954.82;316626;114;2599004;-73
2020/12/21 03:38:21;;;;;;;41.37;21.14;;;;;;;4.12;70.99;100962.12;354683;111;1964900;-74
2020/12/21 03:39:27;;;;;;;45.13;22.59;;;;;;;4.14;71.01;100968.19;354127;111;1961824;-74
2020/12/21 03:40:34;;;;;;;45.49;21.16;;;;;;;4.16;71.02;100960.89;354611;111;1964019;-73
2020/12/21 03:41:40;;;;;;;44.58;22.27;;;;;;;4.19;70.97;100967.80;329491;111;2914919;-72
2020/12/21 03:42:45;;;;;;;43.06;21.47;;;;;;;4.19;71.03;100965.97;329477;111;1961988;-74
2020/12/21 03:43:50;;;;;;;45.71;21.73;;;;;;;4.22;71.15;100962.19;344390;111;1962025;-73
2020/12/21 03:44:56;;;;;;;39.02;20.56;;;;;;;4.24;71.00;100962.91;348123;112;1960651;-74
2020/12/21 03:46:01;;;;;;;40.77;21.11;;;;;;;4.26;71.09;100962.75;347439;114;1961989;-74
2020/12/21 03:47:06;;;;;;;44.73;21.02;;;;;;;4.27;71.12;100962.63;346349;114;1964022;-74
2020/12/21 03:48:13;;;;;;;42.18;20.81;;;;;;;4.30;71.12;100964.20;345258;114;1961964;-73
2020/12/21 03:49:19;;;;;;;41.18;20.81;;;;;;;4.24;71.07;100954.04;334959;111;2272994;-74
2020/12/21 03:50:25;;;;;;;40.26;20.26;;;;;;;4.34;70.98;100966.48;356094;111;1961987;-73
2020/12/21 03:51:31;;;;;;;37.21;18.76;;;;;;;4.35;70.93;100968.16;356742;112;1961957;-74
2020/12/21 03:52:36;;;;;;;39.28;19.13;;;;;;;4.36;70.95;100967.16;355930;111;1963922;-74
2020/12/21 03:53:41;;;;;;;39.81;19.99;;;;;;;4.38;70.93;100970.56;349522;114;1961979;-72
2020/12/21 03:54:47;;;;;;;39.20;20.94;;;;;;;3.84;70.78;100877.28;351353;114;1961974;-74
2020/12/21 03:55:53;;;;;;;43.43;21.61;;;;;;;4.40;70.78;100967.77;351876;113;1964034;-73
2020/12/21 03:56:59;;;;;;;41.67;20.09;;;;;;;4.41;70.78;100967.61;334337;111;2358746;-73
2020/12/21 03:58:04;;;;;;;43.22;20.81;;;;;;;4.41;70.87;100967.61;329055;111;1961988;-73
2020/12/21 03:59:11;;;;;;;37.09;19.84;;;;;;;4.44;70.88;100963.83;355714;112;1961975;-74
2020/12/21 04:00:18;;;;;;;42.10;21.24;;;;;;;4.48;70.68;100967.94;356268;111;1963035;-73
2020/12/21 04:01:23;;;;;;;40.38;20.07;;;;;;;4.50;70.56;100968.66;322756;111;1961978;-73
2020/12/21 04:02:29;;;;;;;41.63;21.52;;;;;;;4.51;70.46;100970.34;353627;111;1962855;-73
2020/12/21 04:03:37;;;;;;;46.01;22.16;;;;;;;4.53;70.47;100971.06;349568;109;1960674;-74
2020/12/21 04:04:43;;;;;;;44.01;21.74;;;;;;;4.53;70.35;100971.06;325768;115;2254057;-73
2020/12/21 04:05:48;;;;;;;38.76;20.78;;;;;;;4.55;70.37;100962.87;325046;114;1962952;-74
2020/12/21 04:06:53;;;;;;;39.90;20.32;;;;;;;4.57;70.38;100966.27;335585;114;1962071;-73
2020/12/21 04:07:58;;;;;;;36.86;20.93;;;;;;;4.58;70.13;100966.16;347877;114;1961977;-74
2020/12/21 04:09:04;;;;;;;37.28;20.45;;;;;;;4.59;70.05;100969.67;347529;114;1961952;-73
2020/12/21 04:10:10;;;;;;;35.56;20.29;;;;;;;4.59;70.02;100966.99;345310;114;1962394;-74
2020/12/21 04:11:16;;;;;;;34.64;19.29;;;;;;;4.58;70.04;100971.50;346397;114;1961908;-73
2020/12/21 04:12:22;;;;;;;40.55;20.69;;;;;;;4.58;69.99;100962.63;329619;114;2244939;-73
2020/12/21 04:13:28;;;;;;;40.29;20.55;;;;;;;4.56;70.08;100961.91;320937;114;1962008;-75
2020/12/21 04:14:35;;;;;;;37.96;19.81;;;;;;;4.57;70.12;100966.27;345071;114;1962076;-73
2020/12/21 04:15:41;;;;;;;41.21;20.84;;;;;;;4.54;69.95;100964.72;346539;114;1961947;-74
2020/12/21 04:16:59;;;;;;;42.74;22.70;;;;;;;4.38;70.06;100943.81;337225;114;1962006;-73
2020/12/21 04:18:04;;;;;;;42.01;20.72;;;;;;;4.44;70.23;100961.14;337486;118;1961996;-70
2020/12/21 04:19:10;;;;;;;41.38;20.43;;;;;;;4.39;70.42;100955.34;337019;118;1961955;-73
2020/12/21 04:20:17;;;;;;;42.54;20.23;;;;;;;4.36;70.53;100952.95;306067;118;1961926;-72
2020/12/21 04:21:22;;;;;;;38.64;20.75;;;;;;;4.34;70.48;100955.78;331250;118;1962913;-72
2020/12/21 04:22:27;;;;;;;41.39;20.91;;;;;;;4.31;70.59;100957.85;336186;118;1962050;-71
2020/12/21 04:23:32;;;;;;;44.29;20.58;;;;;;;4.31;70.63;100953.38;336932;118;1964326;-71
2020/12/21 04:24:38;;;;;;;40.33;19.84;;;;;;;4.30;70.76;100959.69;336433;118;1962020;-72
2020/12/21 04:25:43;;;;;;;46.06;22.71;;;;;;;4.33;70.87;100953.22;336732;118;1960834;-72
2020/12/21 04:26:51;;;;;;;40.74;21.75;;;;;;;4.35;70.78;100954.78;308775;118;2487934;-72
2020/12/21 04:27:56;;;;;;;40.57;21.32;;;;;;;4.37;70.88;100955.50;309724;119;1960822;-72
2020/12/21 04:29:01;;;;;;;42.61;22.74;;;;;;;4.40;70.71;100952.55;325903;118;1962090;-73
2020/12/21 04:30:10;;;;;;;42.90;22.20;;;;;;;4.40;70.58;100957.91;333826;119;1960735;-72
2020/12/21 04:31:16;;;;;;;46.45;22.03;;;;;;;4.43;70.71;100947.92;296983;118;2735978;-73
2020/12/21 04:32:22;;;;;;;42.08;22.47;;;;;;;4.45;70.58;100954.84;336796;118;1961964;-73
2020/12/21 04:33:27;;;;;;;39.47;21.18;;;;;;;4.45;70.35;100957.51;337615;118;1961951;-72
2020/12/21 04:34:35;;;;;;;41.38;22.00;;;;;;;4.46;70.69;100959.19;336709;118;1963887;-73
2020/12/21 04:35:41;;;;;;;43.01;22.71;;;;;;;4.50;70.65;100957.08;318545;118;1960801;-73
2020/12/21 04:36:46;;;;;;;38.72;21.53;;;;;;;4.50;70.82;100955.28;337487;116;1962127;-72
2020/12/21 04:37:52;;;;;;;41.71;21.91;;;;;;;4.54;70.62;100951.33;337272;118;1962001;-72
2020/12/21 04:38:57;;;;;;;44.71;21.76;;;;;;;4.55;70.49;100953.05;337384;118;1961917;-72
2020/12/21 04:40:03;;;;;;;41.96;20.98;;;;;;;4.55;70.41;100947.70;336869;118;1960730;-73
2020/12/21 04:41:10;;;;;;;43.31;20.78;;;;;;;4.57;70.38;100947.54;336402;118;1962079;-73
2020/12/21 04:42:15;;;;;;;43.63;22.51;;;;;;;4.57;70.29;100945.70;322770;118;1961945;-72
2020/12/21 04:43:23;;;;;;;43.63;21.13;;;;;;;4.57;70.36;100940.36;336479;118;1961931;-73
2020/12/21 04:44:28;;;;;;;40.81;21.44;;;;;;;4.58;70.42;100946.58;331167;120;1963035;-72
2020/12/21 04:45:35;;;;;;;39.11;19.99;;;;;;;4.60;70.33;100945.47;291165;120;2763160;-73
2020/12/21 04:46:41;;;;;;;37.94;20.50;;;;;;;4.62;70.23;100937.28;330805;120;1964019;-72
2020/12/21 04:47:47;;;;;;;38.16;20.76;;;;;;;4.61;70.17;100938.27;331419;120;1961932;-71
2020/12/21 04:48:58;;;;;;;39.91;19.04;;;;;;;4.61;70.06;100949.81;331724;120;1962052;-72
2020/12/21 04:50:10;;;;;;;36.13;19.17;;;;;;;4.62;70.21;100946.15;292934;120;2706960;-73
2020/12/21 04:51:18;;;;;;;44.26;21.14;;;;;;;4.63;70.06;100942.51;311230;120;1961941;-72
2020/12/21 04:52:27;;;;;;;38.96;21.47;;;;;;;4.66;70.05;100946.74;335817;118;1961994;-71
2020/12/21 04:53:33;;;;;;;42.06;20.69;;;;;;;4.66;69.99;100945.87;331160;120;1962981;-72
2020/12/21 04:54:40;;;;;;;43.15;21.79;;;;;;;4.65;70.08;100944.19;311242;120;2328994;-72
2020/12/21 04:55:46;;;;;;;45.68;21.86;;;;;;;4.66;70.04;100944.06;336425;118;1961962;-72
2020/12/21 04:56:56;;;;;;;42.73;20.89;;;;;;;4.65;69.93;100946.87;336564;118;1961927;-71
2020/12/21 04:58:04;;;;;;;45.91;22.43;;;;;;;4.61;70.16;100944.47;336635;118;1961904;-72